createdAt,value
2018-07-02T00:00:03.092Z,99.90
2018-07-02T00:02:31.516Z,99.90
2018-07-02T00:05:00.556Z,99.90
2018-07-02T00:07:28.949Z,99.90
2018-07-02T00:09:57.380Z,99.90
2018-07-02T00:12:26.086Z,99.90
2018-07-02T00:14:55.094Z,99.90
2018-07-02T00:17:23.524Z,99.90
2018-07-02T00:19:51.978Z,99.90
2018-07-02T00:22:20.382Z,99.90
2018-07-02T00:24:48.813Z,99.90
2018-07-02T00:27:17.268Z,99.90
2018-07-02T00:29:45.681Z,99.90
2018-07-02T00:32:14.109Z,99.90
2018-07-02T00:34:42.554Z,99.90
2018-07-02T00:37:10.991Z,99.90
2018-07-02T00:39:39.397Z,99.90
2018-07-02T00:42:07.840Z,99.90
2018-07-02T00:44:36.278Z,99.90
2018-07-02T00:47:04.658Z,99.90
2018-07-02T00:49:33.236Z,99.90
2018-07-02T00:52:01.802Z,99.90
2018-07-02T00:54:30.309Z,99.90
2018-07-02T00:59:26.900Z,99.90
2018-07-02T01:01:55.364Z,99.90
2018-07-02T01:04:23.808Z,99.90
2018-07-02T01:06:52.255Z,99.90
2018-07-02T01:09:20.620Z,99.90
2018-07-02T01:11:49.046Z,99.90
2018-07-02T01:14:17.465Z,99.90
2018-07-02T01:16:45.916Z,99.90
2018-07-02T01:19:14.264Z,99.90
2018-07-02T01:21:42.640Z,99.90
2018-07-02T01:24:11.070Z,99.90
2018-07-02T01:26:39.449Z,99.90
2018-07-02T01:29:07.840Z,99.90
2018-07-02T01:31:36.232Z,99.90
2018-07-02T01:34:04.798Z,99.90
2018-07-02T01:36:33.185Z,99.90
2018-07-02T01:39:01.786Z,99.90
2018-07-02T01:41:30.196Z,99.90
2018-07-02T01:43:58.596Z,99.90
2018-07-02T01:46:27.031Z,99.90
2018-07-02T01:48:55.406Z,99.90
2018-07-02T01:53:51.992Z,99.90
2018-07-02T01:56:20.360Z,99.90
2018-07-02T01:58:48.730Z,99.90
2018-07-02T02:01:17.137Z,99.90
2018-07-02T02:03:45.517Z,99.90
2018-07-02T02:06:13.926Z,99.90
2018-07-02T02:08:42.319Z,99.90
2018-07-02T02:11:10.692Z,99.90
2018-07-02T02:13:39.116Z,99.90
2018-07-02T02:16:07.548Z,99.90
2018-07-02T02:18:35.936Z,99.90
2018-07-02T02:21:04.390Z,99.90
2018-07-02T02:23:32.795Z,99.90
2018-07-02T02:26:01.199Z,99.90
2018-07-02T02:28:29.561Z,99.90
2018-07-02T02:30:57.977Z,99.90
2018-07-02T02:33:26.354Z,99.90
2018-07-02T02:35:54.740Z,99.90
2018-07-02T02:38:23.196Z,99.90
2018-07-02T02:40:51.517Z,99.90
2018-07-02T02:43:19.892Z,99.90
2018-07-02T02:45:48.291Z,99.90
2018-07-02T02:48:16.658Z,99.90
2018-07-02T02:50:45.111Z,99.90
2018-07-02T02:53:13.495Z,99.90
2018-07-02T02:55:41.948Z,99.90
2018-07-02T02:58:10.388Z,99.90
2018-07-02T03:00:38.767Z,99.90
2018-07-02T03:03:07.146Z,99.90
2018-07-02T03:05:35.558Z,99.90
2018-07-02T03:08:03.925Z,99.90
2018-07-02T03:10:32.288Z,99.90
2018-07-02T03:13:00.662Z,99.90
2018-07-02T03:15:29.072Z,99.90
2018-07-02T03:17:57.454Z,99.90
2018-07-02T03:20:25.863Z,99.90
2018-07-02T03:22:54.300Z,99.90
2018-07-02T03:27:50.789Z,99.90
2018-07-02T03:30:19.195Z,99.90
2018-07-02T03:32:47.605Z,99.90
2018-07-02T03:35:16.280Z,99.90
2018-07-02T03:37:44.676Z,99.90
2018-07-02T03:40:13.034Z,99.90
2018-07-02T03:42:41.385Z,99.90
2018-07-02T03:45:09.832Z,99.90
2018-07-02T03:47:38.226Z,99.90
2018-07-02T03:50:06.597Z,99.90
2018-07-02T03:52:35.017Z,99.90
2018-07-02T03:55:03.424Z,99.90
2018-07-02T03:57:31.788Z,99.90
2018-07-02T04:00:00.172Z,99.90
2018-07-02T04:02:28.593Z,99.90
2018-07-02T04:04:56.922Z,99.90
2018-07-02T04:09:53.412Z,99.90
2018-07-02T04:12:21.829Z,99.90
2018-07-02T04:14:50.202Z,99.90
2018-07-02T04:17:18.586Z,99.90
2018-07-02T04:19:46.957Z,99.90
2018-07-02T04:22:15.303Z,99.90
2018-07-02T04:24:43.675Z,99.90
2018-07-02T04:27:12.042Z,99.90
2018-07-02T04:29:40.437Z,99.90
2018-07-02T04:32:08.819Z,99.90
2018-07-02T04:34:37.237Z,99.90
2018-07-02T04:37:05.621Z,99.90
2018-07-02T04:39:34.022Z,99.90
2018-07-02T04:42:02.505Z,99.90
2018-07-02T04:44:30.884Z,99.90
2018-07-02T04:46:59.323Z,99.90
2018-07-02T04:49:27.731Z,99.90
2018-07-02T04:51:56.239Z,99.90
2018-07-02T04:54:25.499Z,99.90
2018-07-02T04:56:53.017Z,99.90
2018-07-02T04:59:21.437Z,99.90
2018-07-02T05:01:49.872Z,99.90
2018-07-02T05:06:46.347Z,99.90
2018-07-02T05:09:14.762Z,99.90
2018-07-02T05:11:43.132Z,99.90
2018-07-02T05:14:11.501Z,99.20
2018-07-02T05:16:39.907Z,99.00
2018-07-02T05:21:36.405Z,98.30
2018-07-02T05:24:04.748Z,97.20
2018-07-02T05:26:33.159Z,97.10
2018-07-02T05:29:01.565Z,96.60
2018-07-02T05:31:30.011Z,94.90
2018-07-02T05:33:58.555Z,95.30
2018-07-02T05:36:27.053Z,93.40
2018-07-02T05:38:55.444Z,90.80
2018-07-02T05:41:23.808Z,89.10
2018-07-02T05:43:52.186Z,88.70
2018-07-02T05:46:20.855Z,86.50
2018-07-02T05:48:49.362Z,86.20
2018-07-02T05:51:17.722Z,84.50
2018-07-02T05:53:46.064Z,83.90
2018-07-02T05:56:14.521Z,73.40
2018-07-02T05:58:42.907Z,67.00
2018-07-02T06:01:11.301Z,66.30
2018-07-02T06:03:39.751Z,64.60
2018-07-02T06:06:08.150Z,58.20
2018-07-02T06:08:36.560Z,60.60
2018-07-02T06:11:04.943Z,58.70
2018-07-02T06:13:33.347Z,55.40
2018-07-02T06:16:01.790Z,53.50
2018-07-02T06:18:30.337Z,53.80
2018-07-02T06:20:58.786Z,53.20
2018-07-02T06:23:27.206Z,52.20
2018-07-02T06:25:55.573Z,49.20
2018-07-02T06:28:23.927Z,49.10
2018-07-02T06:30:52.459Z,50.00
2018-07-02T06:33:20.954Z,47.00
2018-07-02T06:35:49.397Z,48.30
2018-07-02T06:38:17.944Z,48.50
2018-07-02T06:40:46.288Z,47.70
2018-07-02T06:43:29.037Z,42.90
2018-07-02T06:45:57.667Z,41.60
2018-07-02T06:48:26.070Z,37.10
2018-07-02T06:50:54.446Z,38.10
2018-07-02T06:53:22.798Z,37.40
2018-07-02T06:55:51.199Z,36.50
2018-07-02T06:58:19.608Z,40.20
2018-07-02T07:00:48.033Z,41.90
2018-07-02T07:03:16.431Z,38.70
2018-07-02T07:05:44.803Z,34.30
2018-07-02T07:08:13.200Z,35.20
2018-07-02T07:10:41.570Z,33.00
2018-07-02T07:13:09.983Z,35.00
2018-07-02T07:15:38.357Z,32.80
2018-07-02T07:18:06.744Z,29.00
2018-07-02T07:20:35.098Z,30.00
2018-07-02T07:23:03.779Z,29.60
2018-07-02T07:25:32.088Z,30.70
2018-07-02T07:28:00.474Z,30.30
2018-07-02T07:30:28.921Z,31.00
2018-07-02T07:32:57.366Z,32.50
2018-07-02T07:35:25.763Z,32.50
2018-07-02T07:37:54.472Z,33.80
2018-07-02T07:40:22.824Z,34.90
2018-07-02T07:42:51.288Z,34.80
2018-07-02T07:45:19.708Z,35.10
2018-07-02T07:47:48.063Z,35.10
2018-07-02T07:50:16.413Z,36.20
2018-07-02T07:52:45.431Z,35.50
2018-07-02T07:55:13.818Z,34.30
2018-07-02T07:57:42.154Z,35.80
2018-07-02T08:00:10.533Z,34.80
2018-07-02T08:02:39.000Z,35.70
2018-07-02T08:05:07.540Z,35.30
2018-07-02T08:07:35.936Z,34.70
2018-07-02T08:10:04.451Z,34.70
2018-07-02T08:12:32.820Z,34.70
2018-07-02T08:15:01.176Z,37.70
2018-07-02T08:17:29.648Z,33.30
2018-07-02T08:19:57.973Z,32.40
2018-07-02T08:22:26.315Z,33.40
2018-07-02T08:24:54.735Z,34.30
2018-07-02T08:27:23.158Z,30.90
2018-07-02T08:29:51.502Z,32.70
2018-07-02T08:32:19.891Z,32.60
2018-07-02T08:34:48.224Z,33.80
2018-07-02T08:37:16.576Z,34.30
2018-07-02T08:39:44.998Z,31.60
2018-07-02T08:42:13.365Z,33.20
2018-07-02T08:44:41.725Z,34.30
2018-07-02T08:47:10.096Z,36.00
2018-07-02T08:49:38.540Z,37.40
2018-07-02T08:52:06.854Z,33.60
2018-07-02T08:54:35.376Z,35.10
2018-07-02T08:57:03.957Z,34.20
2018-07-02T08:59:32.600Z,34.30
2018-07-02T09:02:00.981Z,38.30
2018-07-02T09:04:29.387Z,38.60
2018-07-02T09:06:57.877Z,36.20
2018-07-02T09:09:26.202Z,36.90
2018-07-02T09:11:54.589Z,35.20
2018-07-02T09:14:23.022Z,37.20
2018-07-02T09:16:51.385Z,35.80
2018-07-02T09:19:19.775Z,34.90
2018-07-02T09:21:48.186Z,33.40
2018-07-02T09:24:16.563Z,34.40
2018-07-02T09:26:45.025Z,37.00
2018-07-02T09:29:13.385Z,38.20
2018-07-02T09:31:41.820Z,39.90
2018-07-02T09:34:10.218Z,42.30
2018-07-02T09:36:38.674Z,42.50
2018-07-02T09:39:09.049Z,42.70
2018-07-02T09:41:37.351Z,43.70
2018-07-02T09:44:05.955Z,48.70
2018-07-02T09:46:34.437Z,44.40
2018-07-02T09:49:02.881Z,44.90
2018-07-02T09:51:31.307Z,45.20
2018-07-02T09:54:00.461Z,44.80
2018-07-02T09:56:28.922Z,44.40
2018-07-02T09:58:57.620Z,46.10
2018-07-02T10:01:26.032Z,46.50
2018-07-02T10:08:57.203Z,47.50
2018-07-02T10:11:25.604Z,47.10
2018-07-02T10:13:54.028Z,48.20
2018-07-02T10:16:22.402Z,49.70
2018-07-02T10:18:50.800Z,49.30
2018-07-02T10:21:19.189Z,48.70
2018-07-02T10:23:47.691Z,47.60
2018-07-02T10:26:16.054Z,48.20
2018-07-02T10:28:44.473Z,47.50
2018-07-02T10:31:13.036Z,48.10
2018-07-02T10:33:41.410Z,46.90
2018-07-02T10:36:09.798Z,47.60
2018-07-02T10:38:38.302Z,48.50
2018-07-02T10:41:06.772Z,47.50
2018-07-02T10:43:35.130Z,46.80
2018-07-02T10:46:03.676Z,47.30
2018-07-02T10:48:32.057Z,47.50
2018-07-02T10:51:00.610Z,47.70
2018-07-02T10:53:29.057Z,46.20
2018-07-02T10:55:57.446Z,48.00
2018-07-02T10:58:25.908Z,46.30
2018-07-02T11:00:54.286Z,47.10
2018-07-02T11:03:22.686Z,48.20
2018-07-02T11:05:51.075Z,47.50
2018-07-02T11:08:19.444Z,48.00
2018-07-02T11:10:48.102Z,48.70
2018-07-02T11:13:16.524Z,47.40
2018-07-02T11:15:44.922Z,46.10
2018-07-02T11:18:13.367Z,46.40
2018-07-02T11:20:42.327Z,46.00
2018-07-02T11:23:10.751Z,47.80
2018-07-02T11:25:39.934Z,47.20
2018-07-02T11:28:08.480Z,47.20
2018-07-02T11:30:36.889Z,45.90
2018-07-02T11:33:05.377Z,46.10
2018-07-02T11:35:33.732Z,48.80
2018-07-02T11:38:02.137Z,47.50
2018-07-02T11:40:30.576Z,46.90
2018-07-02T11:42:58.980Z,48.40
2018-07-02T11:45:27.335Z,47.10
2018-07-02T11:47:55.672Z,47.60
2018-07-02T11:50:24.033Z,46.60
2018-07-02T11:52:52.457Z,46.90
2018-07-02T11:57:48.996Z,45.50
2018-07-02T12:00:17.363Z,45.10
2018-07-02T12:02:45.736Z,47.90
2018-07-02T12:05:14.166Z,47.00
2018-07-02T12:07:42.566Z,45.90
2018-07-02T12:10:10.962Z,46.40
2018-07-02T12:12:39.497Z,46.40
2018-07-02T12:15:07.926Z,46.50
2018-07-02T12:17:36.471Z,47.90
2018-07-02T12:20:05.400Z,45.50
2018-07-02T12:22:33.784Z,45.80
2018-07-02T12:25:02.156Z,45.40
2018-07-02T12:27:30.516Z,45.40
2018-07-02T12:29:58.922Z,46.50
2018-07-02T12:32:27.321Z,47.20
2018-07-02T12:34:55.694Z,47.30
2018-07-02T12:37:24.088Z,46.00
2018-07-02T12:39:52.458Z,45.50
2018-07-02T12:42:20.835Z,45.70
2018-07-02T12:44:49.250Z,45.70
2018-07-02T12:47:17.636Z,46.30
2018-07-02T12:49:46.116Z,44.70
2018-07-02T12:52:14.553Z,46.70
2018-07-02T12:54:42.932Z,44.80
2018-07-02T12:57:11.379Z,45.30
2018-07-02T12:59:40.034Z,45.90
2018-07-02T13:02:08.395Z,45.70
2018-07-02T13:04:36.733Z,45.20
2018-07-02T13:07:05.209Z,45.20
2018-07-02T13:09:33.575Z,45.40
2018-07-02T13:12:01.939Z,46.20
2018-07-02T13:14:30.477Z,45.30
2018-07-02T13:16:58.868Z,45.60
2018-07-02T13:19:27.439Z,45.00
2018-07-02T13:21:55.817Z,44.20
2018-07-02T13:24:24.230Z,43.90
2018-07-02T13:26:52.619Z,44.60
2018-07-02T13:29:21.040Z,44.80
2018-07-02T13:31:49.436Z,47.30
2018-07-02T13:34:17.869Z,44.40
2018-07-02T13:36:46.232Z,43.60
2018-07-02T13:39:14.616Z,44.70
2018-07-02T13:41:43.043Z,43.30
2018-07-02T13:44:11.392Z,45.00
2018-07-02T13:46:40.155Z,44.80
2018-07-02T13:49:08.693Z,45.20
2018-07-02T13:51:37.101Z,43.30
2018-07-02T13:54:05.809Z,44.00
2018-07-02T13:56:34.730Z,43.80
2018-07-02T13:59:03.157Z,44.50
2018-07-02T14:01:31.614Z,43.80
2018-07-02T14:04:00.041Z,42.70
2018-07-02T14:06:28.554Z,45.60
2018-07-02T14:08:57.211Z,44.10
2018-07-02T14:11:26.625Z,44.20
2018-07-02T14:13:55.442Z,44.40
2018-07-02T14:16:24.027Z,43.30
2018-07-02T14:18:52.617Z,44.80
2018-07-02T14:21:21.460Z,45.70
2018-07-02T14:23:50.235Z,45.70
2018-07-02T14:26:18.963Z,47.00
2018-07-02T14:28:48.222Z,46.00
2018-07-02T14:31:17.035Z,45.40
2018-07-02T14:33:45.787Z,45.20
2018-07-02T14:36:14.651Z,44.50
2018-07-02T14:38:43.352Z,45.30
2018-07-02T14:41:12.113Z,44.20
2018-07-02T14:46:09.302Z,43.80
2018-07-02T14:48:37.935Z,46.00
2018-07-02T14:51:06.527Z,42.40
2018-07-02T14:53:35.073Z,43.70
2018-07-02T14:56:03.554Z,44.50
2018-07-02T14:58:31.984Z,42.70
2018-07-02T15:01:00.562Z,44.50
2018-07-02T15:03:29.167Z,44.60
2018-07-02T15:05:57.578Z,42.60
2018-07-02T15:08:26.138Z,43.80
2018-07-02T15:10:54.690Z,43.10
2018-07-02T15:13:23.297Z,43.80
2018-07-02T15:15:51.899Z,44.60
2018-07-02T15:18:20.666Z,43.20
2018-07-02T15:20:49.322Z,44.30
2018-07-02T15:23:18.054Z,43.40
2018-07-02T15:25:46.724Z,44.00
2018-07-02T15:30:43.818Z,43.60
2018-07-02T15:33:12.577Z,43.00
2018-07-02T15:35:41.360Z,42.50
2018-07-02T15:38:10.133Z,43.40
2018-07-02T15:40:39.136Z,44.60
2018-07-02T15:43:07.823Z,44.60
2018-07-02T15:45:36.843Z,44.10
2018-07-02T15:48:05.467Z,44.00
2018-07-02T15:50:34.249Z,44.10
2018-07-02T15:53:02.521Z,44.20
2018-07-02T15:55:31.076Z,43.10
2018-07-02T15:57:59.549Z,43.50
2018-07-02T16:00:27.993Z,44.10
2018-07-02T16:02:56.345Z,44.40
2018-07-02T16:05:24.851Z,43.00
2018-07-02T16:07:53.876Z,42.50
2018-07-02T16:10:22.467Z,42.60
2018-07-02T16:12:50.866Z,42.70
2018-07-02T16:15:19.439Z,43.40
2018-07-02T16:17:47.953Z,42.90
2018-07-02T16:20:16.996Z,44.00
2018-07-02T16:22:45.636Z,42.60
2018-07-02T16:25:14.074Z,43.10
2018-07-02T16:27:42.525Z,41.80
2018-07-02T16:32:39.505Z,42.10
2018-07-02T16:35:07.919Z,43.40
2018-07-02T16:37:36.346Z,41.60
2018-07-02T16:40:05.196Z,41.80
2018-07-02T16:42:33.608Z,41.80
2018-07-02T16:45:02.220Z,41.60
2018-07-02T16:47:30.732Z,41.60
2018-07-02T16:49:59.278Z,41.20
2018-07-02T16:52:27.920Z,42.30
2018-07-02T16:54:56.450Z,41.30
2018-07-02T16:57:25.037Z,42.30
2018-07-02T16:59:53.506Z,42.10
2018-07-02T17:02:22.150Z,42.40
2018-07-02T17:04:50.604Z,43.30
2018-07-02T17:07:19.112Z,43.20
2018-07-02T17:09:47.829Z,42.90
2018-07-02T17:12:17.570Z,42.60
2018-07-02T17:14:46.045Z,42.90
2018-07-02T17:17:14.453Z,41.80
2018-07-02T17:19:43.200Z,41.90
2018-07-02T17:22:11.639Z,42.40
2018-07-02T17:24:40.142Z,42.40
2018-07-02T17:27:08.512Z,43.80
2018-07-02T17:29:36.924Z,43.40
2018-07-02T17:32:05.405Z,42.50
2018-07-02T17:34:33.789Z,42.10
2018-07-02T17:37:02.176Z,42.30
2018-07-02T17:39:30.983Z,43.60
2018-07-02T17:41:59.396Z,43.40
2018-07-02T17:44:27.758Z,42.90
2018-07-02T17:46:56.170Z,43.80
2018-07-02T17:49:24.820Z,44.80
2018-07-02T17:51:53.326Z,45.20
2018-07-02T17:54:21.708Z,44.30
2018-07-02T17:59:19.399Z,44.70
2018-07-02T18:01:48.124Z,45.30
2018-07-02T18:04:16.773Z,44.90
2018-07-02T18:06:45.584Z,44.60
2018-07-02T18:09:14.286Z,45.20
2018-07-02T18:11:42.958Z,44.70
2018-07-02T18:14:11.937Z,45.10
2018-07-02T18:16:40.675Z,45.20
2018-07-02T18:19:09.421Z,45.80
2018-07-02T18:24:06.736Z,46.10
2018-07-02T18:26:35.513Z,46.00
2018-07-02T18:29:04.069Z,46.40
2018-07-02T18:31:32.724Z,46.50
2018-07-02T18:34:01.459Z,47.00
2018-07-02T18:38:58.572Z,47.30
2018-07-02T18:41:27.371Z,47.50
2018-07-02T18:43:56.072Z,47.50
2018-07-02T18:46:24.885Z,47.80
2018-07-02T18:48:53.614Z,47.80
2018-07-02T18:51:22.309Z,47.90
2018-07-02T18:53:51.484Z,48.20
2018-07-02T18:56:20.653Z,48.30
2018-07-02T18:58:49.643Z,48.70
2018-07-02T19:01:18.775Z,48.50
2018-07-02T19:03:47.748Z,48.70
2018-07-02T19:06:16.695Z,48.60
2018-07-02T19:08:45.742Z,48.60
2018-07-02T19:11:14.776Z,48.50
2018-07-02T19:13:43.784Z,49.00
2018-07-02T19:16:12.768Z,49.10
2018-07-02T19:18:41.858Z,49.50
2018-07-02T19:21:10.815Z,49.40
2018-07-02T19:23:41.677Z,50.10
2018-07-02T19:26:10.715Z,50.00
2018-07-02T19:28:40.620Z,50.50
2018-07-02T19:31:09.652Z,50.00
2018-07-02T19:33:38.693Z,50.10
2018-07-02T19:36:07.638Z,50.30
2018-07-02T19:38:36.532Z,50.50
2018-07-02T19:41:05.638Z,50.50
2018-07-02T19:43:34.514Z,50.50
2018-07-02T19:46:03.225Z,50.80
2018-07-02T19:48:31.996Z,50.60
2018-07-02T19:51:00.757Z,50.80
2018-07-02T19:53:29.570Z,51.10
2018-07-02T19:55:58.350Z,51.10
2018-07-02T19:58:27.084Z,51.80
2018-07-02T20:00:55.639Z,51.90
2018-07-02T20:03:24.322Z,53.10
2018-07-02T20:05:52.946Z,54.60
2018-07-02T20:08:21.685Z,57.90
2018-07-02T20:10:50.255Z,58.40
2018-07-02T20:13:18.905Z,59.50
2018-07-02T20:15:47.812Z,60.00
2018-07-02T20:18:16.742Z,59.70
2018-07-02T20:20:45.577Z,60.40
2018-07-02T20:23:14.446Z,63.20
2018-07-02T20:25:43.114Z,65.60
2018-07-02T20:28:11.785Z,67.30
2018-07-02T20:30:40.474Z,67.70
2018-07-02T20:33:09.341Z,67.00
2018-07-02T20:35:38.022Z,67.80
2018-07-02T20:38:06.557Z,66.40
2018-07-02T20:40:35.421Z,69.70
2018-07-02T20:43:04.005Z,71.60
2018-07-02T20:45:32.461Z,72.80
2018-07-02T20:48:00.831Z,74.50
2018-07-02T20:50:29.189Z,75.30
2018-07-02T20:52:57.597Z,76.10
2018-07-02T20:55:26.058Z,77.70
2018-07-02T20:57:54.406Z,78.50
2018-07-02T21:00:22.873Z,79.80
2018-07-02T21:02:51.253Z,81.10
2018-07-02T21:05:19.705Z,81.10
2018-07-02T21:07:48.103Z,81.60
2018-07-02T21:10:16.518Z,83.70
2018-07-02T21:12:44.941Z,84.10
2018-07-02T21:15:13.347Z,85.70
2018-07-02T21:17:41.752Z,87.00
2018-07-02T21:20:10.107Z,88.40
2018-07-02T21:22:38.440Z,90.10
2018-07-02T21:25:06.769Z,90.80
2018-07-02T21:27:35.267Z,91.40
2018-07-02T21:30:04.007Z,91.80
2018-07-02T21:32:32.472Z,91.40
2018-07-02T21:35:01.709Z,91.60
2018-07-02T21:37:30.084Z,91.50
2018-07-02T21:39:58.402Z,91.60
2018-07-02T21:42:26.764Z,92.20
2018-07-02T21:44:55.108Z,92.80
2018-07-02T21:47:24.716Z,93.40
2018-07-02T21:49:53.029Z,93.80
2018-07-02T21:52:21.578Z,94.00
2018-07-02T21:54:49.922Z,94.30
2018-07-02T21:57:18.255Z,94.80
2018-07-02T21:59:46.633Z,94.90
2018-07-02T22:02:15.032Z,94.90
2018-07-02T22:04:43.558Z,94.90
2018-07-02T22:07:12.159Z,94.60
2018-07-02T22:09:40.532Z,94.90
2018-07-02T22:12:08.910Z,95.60
2018-07-02T22:14:37.299Z,96.70
2018-07-02T22:17:05.651Z,97.10
2018-07-02T22:19:33.998Z,97.50
2018-07-02T22:22:02.366Z,97.90
2018-07-02T22:24:30.771Z,98.40
2018-07-02T22:26:59.116Z,98.50
2018-07-02T22:29:27.464Z,98.60
2018-07-02T22:31:55.802Z,98.70
2018-07-02T22:34:24.215Z,98.30
2018-07-02T22:36:52.547Z,98.50
2018-07-02T22:39:20.909Z,98.60
2018-07-02T22:41:49.232Z,98.80
2018-07-02T22:44:17.602Z,98.80
2018-07-02T22:46:45.949Z,99.40
2018-07-02T22:49:14.268Z,99.40
2018-07-02T22:51:42.602Z,99.80
2018-07-02T22:54:10.991Z,99.90
2018-07-02T22:56:39.316Z,99.80
2018-07-02T22:59:07.657Z,99.70
2018-07-02T23:01:36.081Z,99.90
2018-07-02T23:04:04.645Z,99.90
2018-07-02T23:06:32.973Z,99.90
2018-07-02T23:09:01.351Z,99.60
2018-07-02T23:11:29.723Z,99.80
2018-07-02T23:13:58.041Z,99.80
2018-07-02T23:16:26.386Z,99.90
2018-07-02T23:18:54.795Z,99.90
2018-07-02T23:21:23.160Z,99.90
2018-07-02T23:23:51.506Z,99.90
2018-07-02T23:26:19.868Z,99.90
2018-07-02T23:28:48.227Z,99.90
2018-07-02T23:31:16.586Z,99.90
2018-07-02T23:33:45.093Z,99.90
2018-07-02T23:36:13.438Z,99.90
2018-07-02T23:38:41.796Z,99.90
2018-07-02T23:41:10.142Z,99.90
2018-07-02T23:43:38.505Z,99.90
2018-07-02T23:46:06.871Z,99.90
2018-07-02T23:48:35.219Z,99.90
2018-07-02T23:51:03.614Z,99.90
2018-07-02T23:53:31.974Z,99.90
2018-07-02T23:56:00.355Z,99.90
2018-07-02T23:58:28.720Z,99.90
